sensor_id;sensor_type;location;lat;lon;timestamp;pressure;altitude;pressure_sealevel;temperature;humidity
63819;BME280;49970;54.976;73.248;2022-12-29T00:01:51;102118.22;;;-15.69;80.85
63819;BME280;49970;54.976;73.248;2022-12-29T00:04:30;102118.34;;;-15.67;80.36
63819;BME280;49970;54.976;73.248;2022-12-29T00:07:01;102109.16;;;-15.65;79.92
63819;BME280;49970;54.976;73.248;2022-12-29T00:09:33;102105.00;;;-15.63;80.40
63819;BME280;49970;54.976;73.248;2022-12-29T00:12:04;102115.28;;;-15.62;80.03
63819;BME280;49970;54.976;73.248;2022-12-29T00:14:34;102106.78;;;-15.62;80.41
63819;BME280;49970;54.976;73.248;2022-12-29T00:17:20;102100.75;;;-15.64;80.06
63819;BME280;49970;54.976;73.248;2022-12-29T00:19:50;102097.50;;;-15.62;79.85
63819;BME280;49970;54.976;73.248;2022-12-29T00:22:38;102110.78;;;-15.52;79.74
63819;BME280;49970;54.976;73.248;2022-12-29T00:25:32;102112.44;;;-15.53;80.08
63819;BME280;49970;54.976;73.248;2022-12-29T00:28:24;102109.31;;;-15.49;79.80
63819;BME280;49970;54.976;73.248;2022-12-29T00:31:12;102106.97;;;-15.46;80.29
63819;BME280;49970;54.976;73.248;2022-12-29T00:34:02;102113.88;;;-15.43;80.12
63819;BME280;49970;54.976;73.248;2022-12-29T00:36:50;102105.47;;;-15.42;80.40
63819;BME280;49970;54.976;73.248;2022-12-29T00:39:20;102108.13;;;-15.41;79.65
63819;BME280;49970;54.976;73.248;2022-12-29T00:42:08;102108.00;;;-15.42;80.51
63819;BME280;49970;54.976;73.248;2022-12-29T00:44:56;102113.88;;;-15.43;79.80
63819;BME280;49970;54.976;73.248;2022-12-29T00:47:27;102120.63;;;-15.44;80.22
63819;BME280;49970;54.976;73.248;2022-12-29T00:49:58;102123.25;;;-15.42;80.00
63819;BME280;49970;54.976;73.248;2022-12-29T00:52:29;102120.03;;;-15.40;80.93
63819;BME280;49970;54.976;73.248;2022-12-29T00:55:00;102116.63;;;-15.40;80.07
63819;BME280;49970;54.976;73.248;2022-12-29T00:57:30;102117.09;;;-15.33;80.56
63819;BME280;49970;54.976;73.248;2022-12-29T01:00:00;102123.25;;;-15.29;80.53
63819;BME280;49970;54.976;73.248;2022-12-29T01:02:33;102124.00;;;-15.30;80.65
63819;BME280;49970;54.976;73.248;2022-12-29T01:05:04;102127.34;;;-15.31;80.99
63819;BME280;49970;54.976;73.248;2022-12-29T01:07:36;102128.94;;;-15.33;80.69
63819;BME280;49970;54.976;73.248;2022-12-29T01:10:06;102126.19;;;-15.36;80.36
63819;BME280;49970;54.976;73.248;2022-12-29T01:12:44;102134.31;;;-15.42;79.40
63819;BME280;49970;54.976;73.248;2022-12-29T01:15:16;102134.13;;;-15.45;79.77
63819;BME280;49970;54.976;73.248;2022-12-29T01:17:50;102130.41;;;-15.50;79.91
63819;BME280;49970;54.976;73.248;2022-12-29T01:20:24;102120.56;;;-15.59;79.53
63819;BME280;49970;54.976;73.248;2022-12-29T01:23:01;102135.91;;;-15.70;79.58
63819;BME280;49970;54.976;73.248;2022-12-29T01:25:34;102132.09;;;-15.77;79.38
63819;BME280;49970;54.976;73.248;2022-12-29T01:28:14;102141.00;;;-15.84;79.05
63819;BME280;49970;54.976;73.248;2022-12-29T01:30:48;102123.31;;;-15.95;78.88
63819;BME280;49970;54.976;73.248;2022-12-29T01:33:21;102121.66;;;-15.95;79.29
63819;BME280;49970;54.976;73.248;2022-12-29T01:35:52;102122.22;;;-15.99;79.37
63819;BME280;49970;54.976;73.248;2022-12-29T01:38:32;102126.22;;;-16.02;79.17
63819;BME280;49970;54.976;73.248;2022-12-29T01:41:02;102127.78;;;-16.04;79.55
63819;BME280;49970;54.976;73.248;2022-12-29T01:43:50;102128.97;;;-15.99;79.04
63819;BME280;49970;54.976;73.248;2022-12-29T01:46:40;102114.59;;;-16.12;79.06
63819;BME280;49970;54.976;73.248;2022-12-29T01:49:28;102120.47;;;-16.13;79.39
63819;BME280;49970;54.976;73.248;2022-12-29T01:52:00;102133.31;;;-16.10;78.84
63819;BME280;49970;54.976;73.248;2022-12-29T01:57:09;102129.31;;;-16.20;78.79
63819;BME280;49970;54.976;73.248;2022-12-29T01:59:43;102139.03;;;-16.26;78.99
63819;BME280;49970;54.976;73.248;2022-12-29T02:02:16;102140.81;;;-16.25;79.19
63819;BME280;49970;54.976;73.248;2022-12-29T02:04:58;102142.06;;;-16.31;79.13
63819;BME280;49970;54.976;73.248;2022-12-29T02:07:29;102128.13;;;-16.38;79.31
63819;BME280;49970;54.976;73.248;2022-12-29T02:10:02;102130.09;;;-16.34;79.22
63819;BME280;49970;54.976;73.248;2022-12-29T02:12:33;102130.97;;;-16.34;79.04
63819;BME280;49970;54.976;73.248;2022-12-29T02:15:14;102130.47;;;-16.28;79.71
63819;BME280;49970;54.976;73.248;2022-12-29T02:17:50;102137.41;;;-16.25;79.31
63819;BME280;49970;54.976;73.248;2022-12-29T02:20:46;102136.13;;;-16.32;79.06
63819;BME280;49970;54.976;73.248;2022-12-29T02:29:39;102138.94;;;-16.27;79.27
63819;BME280;49970;54.976;73.248;2022-12-29T02:35:25;102141.78;;;-16.23;78.89
63819;BME280;49970;54.976;73.248;2022-12-29T02:41:05;102136.94;;;-16.20;79.04
63819;BME280;49970;54.976;73.248;2022-12-29T02:44:42;102138.97;;;-16.14;78.87
63819;BME280;49970;54.976;73.248;2022-12-29T02:46:42;102144.34;;;-16.10;79.19
63819;BME280;49970;54.976;73.248;2022-12-29T02:52:15;102140.75;;;-16.13;78.80
63819;BME280;49970;54.976;73.248;2022-12-29T02:54:58;102133.59;;;-16.19;79.40
63819;BME280;49970;54.976;73.248;2022-12-29T02:57:29;102148.38;;;-16.13;78.84
63819;BME280;49970;54.976;73.248;2022-12-29T03:06:25;102157.72;;;-16.25;79.22
63819;BME280;49970;54.976;73.248;2022-12-29T03:09:19;102176.06;;;-16.16;79.71
63819;BME280;49970;54.976;73.248;2022-12-29T03:12:00;102171.63;;;-16.32;79.11
63819;BME280;49970;54.976;73.248;2022-12-29T03:14:52;102159.47;;;-16.49;79.19
63819;BME280;49970;54.976;73.248;2022-12-29T03:17:58;102169.34;;;-16.41;79.51
63819;BME280;49970;54.976;73.248;2022-12-29T03:20:59;102163.97;;;-16.45;79.63
63819;BME280;49970;54.976;73.248;2022-12-29T03:23:32;102170.06;;;-16.30;79.75
63819;BME280;49970;54.976;73.248;2022-12-29T03:26:14;102153.09;;;-16.31;79.87
63819;BME280;49970;54.976;73.248;2022-12-29T03:28:53;102163.59;;;-16.13;79.98
63819;BME280;49970;54.976;73.248;2022-12-29T03:31:26;102166.44;;;-16.09;79.74
63819;BME280;49970;54.976;73.248;2022-12-29T03:33:57;102178.06;;;-15.99;79.80
63819;BME280;49970;54.976;73.248;2022-12-29T03:36:44;102179.16;;;-15.95;79.64
63819;BME280;49970;54.976;73.248;2022-12-29T03:39:17;102167.09;;;-16.11;79.96
63819;BME280;49970;54.976;73.248;2022-12-29T03:41:46;102180.19;;;-16.05;79.78
63819;BME280;49970;54.976;73.248;2022-12-29T03:44:36;102191.25;;;-16.04;79.69
63819;BME280;49970;54.976;73.248;2022-12-29T03:47:06;102178.81;;;-16.13;79.83
63819;BME280;49970;54.976;73.248;2022-12-29T03:49:35;102181.16;;;-16.16;79.80
63819;BME280;49970;54.976;73.248;2022-12-29T03:52:17;102180.41;;;-16.27;79.79
63819;BME280;49970;54.976;73.248;2022-12-29T03:54:53;102179.53;;;-16.27;79.71
63819;BME280;49970;54.976;73.248;2022-12-29T03:57:29;102183.16;;;-16.24;80.12
63819;BME280;49970;54.976;73.248;2022-12-29T04:00:04;102188.53;;;-16.19;80.27
63819;BME280;49970;54.976;73.248;2022-12-29T04:02:50;102187.31;;;-16.13;80.81
63819;BME280;49970;54.976;73.248;2022-12-29T04:05:25;102190.31;;;-16.18;80.16
63819;BME280;49970;54.976;73.248;2022-12-29T04:08:02;102186.09;;;-16.18;80.21
63819;BME280;49970;54.976;73.248;2022-12-29T04:10:41;102191.69;;;-16.10;80.32
63819;BME280;49970;54.976;73.248;2022-12-29T04:13:12;102182.91;;;-16.15;80.16
63819;BME280;49970;54.976;73.248;2022-12-29T04:15:47;102184.00;;;-16.12;80.35
63819;BME280;49970;54.976;73.248;2022-12-29T04:18:19;102192.41;;;-15.99;80.60
63819;BME280;49970;54.976;73.248;2022-12-29T04:20:55;102191.06;;;-15.94;80.47
63819;BME280;49970;54.976;73.248;2022-12-29T04:23:40;102193.00;;;-15.90;80.61
63819;BME280;49970;54.976;73.248;2022-12-29T04:26:12;102195.06;;;-15.85;80.15
63819;BME280;49970;54.976;73.248;2022-12-29T04:29:00;102196.16;;;-15.81;80.43
63819;BME280;49970;54.976;73.248;2022-12-29T04:32:00;102203.75;;;-15.81;79.87
63819;BME280;49970;54.976;73.248;2022-12-29T04:34:42;102207.75;;;-15.85;79.80
63819;BME280;49970;54.976;73.248;2022-12-29T04:37:10;102188.31;;;-15.97;80.24
63819;BME280;49970;54.976;73.248;2022-12-29T04:39:40;102219.41;;;-15.75;80.33
63819;BME280;49970;54.976;73.248;2022-12-29T04:42:10;102219.00;;;-15.68;80.51
63819;BME280;49970;54.976;73.248;2022-12-29T04:44:42;102221.81;;;-15.63;80.60
63819;BME280;49970;54.976;73.248;2022-12-29T04:47:33;102225.56;;;-15.71;80.37
63819;BME280;49970;54.976;73.248;2022-12-29T04:50:20;102224.22;;;-15.66;80.31
63819;BME280;49970;54.976;73.248;2022-12-29T04:53:14;102221.22;;;-15.59;80.83
63819;BME280;49970;54.976;73.248;2022-12-29T04:55:51;102220.28;;;-15.61;80.73
63819;BME280;49970;54.976;73.248;2022-12-29T04:58:23;102216.06;;;-15.61;80.28
63819;BME280;49970;54.976;73.248;2022-12-29T05:00:53;102209.75;;;-15.54;80.18
63819;BME280;49970;54.976;73.248;2022-12-29T05:03:26;102223.31;;;-15.40;80.01
63819;BME280;49970;54.976;73.248;2022-12-29T05:05:57;102224.97;;;-15.41;80.29
63819;BME280;49970;54.976;73.248;2022-12-29T05:08:32;102220.97;;;-15.37;80.82
63819;BME280;49970;54.976;73.248;2022-12-29T05:11:14;102225.34;;;-15.35;79.95
63819;BME280;49970;54.976;73.248;2022-12-29T05:13:51;102216.28;;;-15.31;80.74
63819;BME280;49970;54.976;73.248;2022-12-29T05:16:29;102216.69;;;-15.25;80.63
63819;BME280;49970;54.976;73.248;2022-12-29T05:19:00;102224.59;;;-15.20;80.14
63819;BME280;49970;54.976;73.248;2022-12-29T05:21:42;102215.59;;;-15.15;80.73
63819;BME280;49970;54.976;73.248;2022-12-29T05:24:12;102218.63;;;-15.08;80.42
63819;BME280;49970;54.976;73.248;2022-12-29T05:26:45;102216.44;;;-15.01;81.19
63819;BME280;49970;54.976;73.248;2022-12-29T05:29:39;102212.06;;;-15.04;80.46
63819;BME280;49970;54.976;73.248;2022-12-29T05:32:12;102212.16;;;-15.02;79.86
63819;BME280;49970;54.976;73.248;2022-12-29T05:34:45;102216.44;;;-15.01;79.93
63819;BME280;49970;54.976;73.248;2022-12-29T05:37:15;102206.41;;;-15.00;80.73
63819;BME280;49970;54.976;73.248;2022-12-29T05:39:56;102210.56;;;-15.00;80.15
63819;BME280;49970;54.976;73.248;2022-12-29T05:42:27;102212.34;;;-14.99;80.65
63819;BME280;49970;54.976;73.248;2022-12-29T05:45:17;102216.56;;;-15.00;79.95
63819;BME280;49970;54.976;73.248;2022-12-29T05:48:09;102193.59;;;-15.15;79.69
63819;BME280;49970;54.976;73.248;2022-12-29T05:51:12;102227.50;;;-15.01;79.45
63819;BME280;49970;54.976;73.248;2022-12-29T05:53:52;102224.88;;;-15.02;80.43
63819;BME280;49970;54.976;73.248;2022-12-29T05:56:31;102228.38;;;-15.00;79.45
63819;BME280;49970;54.976;73.248;2022-12-29T05:59:02;102235.41;;;-14.96;79.77
63819;BME280;49970;54.976;73.248;2022-12-29T06:01:41;102234.94;;;-14.91;79.53
63819;BME280;49970;54.976;73.248;2022-12-29T06:04:11;102235.22;;;-14.86;79.65
63819;BME280;49970;54.976;73.248;2022-12-29T06:06:42;102228.53;;;-14.84;79.80
63819;BME280;49970;54.976;73.248;2022-12-29T06:09:21;102237.16;;;-14.82;80.24
63819;BME280;49970;54.976;73.248;2022-12-29T06:11:53;102241.53;;;-14.79;80.91
63819;BME280;49970;54.976;73.248;2022-12-29T06:14:35;102240.66;;;-14.80;80.30
63819;BME280;49970;54.976;73.248;2022-12-29T06:17:13;102236.78;;;-14.75;80.54
63819;BME280;49970;54.976;73.248;2022-12-29T06:19:47;102243.88;;;-14.69;81.25
63819;BME280;49970;54.976;73.248;2022-12-29T06:22:20;102237.13;;;-14.69;80.05
63819;BME280;49970;54.976;73.248;2022-12-29T06:25:00;102225.09;;;-14.71;80.94
63819;BME280;49970;54.976;73.248;2022-12-29T06:27:30;102222.75;;;-14.68;81.41
63819;BME280;49970;54.976;73.248;2022-12-29T06:30:06;102235.16;;;-14.60;81.56
63819;BME280;49970;54.976;73.248;2022-12-29T06:32:39;102222.63;;;-14.57;80.68
63819;BME280;49970;54.976;73.248;2022-12-29T06:35:12;102218.06;;;-14.62;81.54
63819;BME280;49970;54.976;73.248;2022-12-29T06:37:46;102224.97;;;-14.60;81.30
63819;BME280;49970;54.976;73.248;2022-12-29T06:40:17;102217.47;;;-14.58;81.79
63819;BME280;49970;54.976;73.248;2022-12-29T06:43:15;102225.38;;;-14.53;81.97
63819;BME280;49970;54.976;73.248;2022-12-29T06:46:13;102216.16;;;-14.51;81.34
63819;BME280;49970;54.976;73.248;2022-12-29T06:48:45;102209.72;;;-14.60;80.50
63819;BME280;49970;54.976;73.248;2022-12-29T06:51:15;102216.75;;;-14.55;81.74
63819;BME280;49970;54.976;73.248;2022-12-29T06:53:56;102221.94;;;-14.54;80.37
63819;BME280;49970;54.976;73.248;2022-12-29T06:56:27;102222.81;;;-14.53;81.25
63819;BME280;49970;54.976;73.248;2022-12-29T06:59:00;102220.44;;;-14.50;81.05
63819;BME280;49970;54.976;73.248;2022-12-29T07:01:32;102223.25;;;-14.46;80.92
63819;BME280;49970;54.976;73.248;2022-12-29T07:04:07;102207.84;;;-14.49;81.23
63819;BME280;49970;54.976;73.248;2022-12-29T07:06:39;102220.78;;;-14.44;80.22
63819;BME280;49970;54.976;73.248;2022-12-29T07:09:19;102220.13;;;-14.42;81.67
63819;BME280;49970;54.976;73.248;2022-12-29T07:11:48;102220.00;;;-14.43;80.79
63819;BME280;49970;54.976;73.248;2022-12-29T07:14:19;102219.31;;;-14.41;80.97
63819;BME280;49970;54.976;73.248;2022-12-29T07:16:53;102222.94;;;-14.37;80.14
63819;BME280;49970;54.976;73.248;2022-12-29T07:19:29;102220.66;;;-14.33;80.47
63819;BME280;49970;54.976;73.248;2022-12-29T07:22:04;102223.56;;;-14.26;80.35
63819;BME280;49970;54.976;73.248;2022-12-29T07:24:35;102218.66;;;-14.23;81.51
63819;BME280;49970;54.976;73.248;2022-12-29T07:27:14;102220.53;;;-14.21;80.67
63819;BME280;49970;54.976;73.248;2022-12-29T07:29:46;102218.06;;;-14.19;81.57
63819;BME280;49970;54.976;73.248;2022-12-29T07:32:18;102208.66;;;-14.20;80.67
63819;BME280;49970;54.976;73.248;2022-12-29T07:34:47;102216.78;;;-14.26;81.64
63819;BME280;49970;54.976;73.248;2022-12-29T07:37:27;102213.78;;;-14.34;81.33
63819;BME280;49970;54.976;73.248;2022-12-29T07:40:08;102206.78;;;-14.38;80.77
63819;BME280;49970;54.976;73.248;2022-12-29T07:42:39;102206.59;;;-14.41;81.26
63819;BME280;49970;54.976;73.248;2022-12-29T07:45:12;102215.19;;;-14.39;81.64
63819;BME280;49970;54.976;73.248;2022-12-29T07:48:05;102200.88;;;-14.51;80.84
63819;BME280;49970;54.976;73.248;2022-12-29T07:50:38;102219.81;;;-14.46;80.22
63819;BME280;49970;54.976;73.248;2022-12-29T07:53:09;102218.16;;;-14.46;80.40
63819;BME280;49970;54.976;73.248;2022-12-29T07:55:49;102225.00;;;-14.45;80.34
63819;BME280;49970;54.976;73.248;2022-12-29T07:58:25;102217.47;;;-14.43;80.72
63819;BME280;49970;54.976;73.248;2022-12-29T08:00:57;102212.28;;;-14.45;81.28
63819;BME280;49970;54.976;73.248;2022-12-29T08:03:27;102215.91;;;-14.41;81.64
63819;BME280;49970;54.976;73.248;2022-12-29T08:05:58;102216.78;;;-14.41;81.15
63819;BME280;49970;54.976;73.248;2022-12-29T08:08:30;102219.19;;;-14.42;81.19
63819;BME280;49970;54.976;73.248;2022-12-29T08:11:01;102219.59;;;-14.36;81.15
63819;BME280;49970;54.976;73.248;2022-12-29T08:13:36;102210.97;;;-14.38;81.05
63819;BME280;49970;54.976;73.248;2022-12-29T08:16:10;102214.59;;;-14.35;81.44
63819;BME280;49970;54.976;73.248;2022-12-29T08:18:53;102211.97;;;-14.36;81.31
63819;BME280;49970;54.976;73.248;2022-12-29T08:21:33;102210.28;;;-14.36;80.72
63819;BME280;49970;54.976;73.248;2022-12-29T08:24:09;102210.97;;;-14.38;81.15
63819;BME280;49970;54.976;73.248;2022-12-29T08:26:42;102186.06;;;-14.59;80.20
63819;BME280;49970;54.976;73.248;2022-12-29T08:29:17;102215.03;;;-14.42;80.53
63819;BME280;49970;54.976;73.248;2022-12-29T08:31:51;102213.34;;;-14.41;81.60
63819;BME280;49970;54.976;73.248;2022-12-29T08:34:21;102209.34;;;-14.38;81.56
63819;BME280;49970;54.976;73.248;2022-12-29T08:36:52;102197.97;;;-14.43;80.54
63819;BME280;49970;54.976;73.248;2022-12-29T08:39:34;102215.38;;;-14.36;81.48
63819;BME280;49970;54.976;73.248;2022-12-29T08:42:04;102214.41;;;-14.38;81.42
63819;BME280;49970;54.976;73.248;2022-12-29T08:44:34;102206.69;;;-14.39;81.37
63819;BME280;49970;54.976;73.248;2022-12-29T08:47:05;102214.31;;;-14.39;81.10
63819;BME280;49970;54.976;73.248;2022-12-29T08:49:35;102200.25;;;-14.47;81.63
63819;BME280;49970;54.976;73.248;2022-12-29T08:52:05;102215.63;;;-14.46;80.23
63819;BME280;49970;54.976;73.248;2022-12-29T08:54:36;102212.97;;;-14.47;81.58
63819;BME280;49970;54.976;73.248;2022-12-29T08:57:05;102220.44;;;-14.50;80.60
63819;BME280;49970;54.976;73.248;2022-12-29T08:59:44;102192.78;;;-14.59;80.77
63819;BME280;49970;54.976;73.248;2022-12-29T09:02:18;102213.53;;;-14.53;81.37
63819;BME280;49970;54.976;73.248;2022-12-29T09:04:58;102215.00;;;-14.57;80.90
63819;BME280;49970;54.976;73.248;2022-12-29T09:07:35;102210.59;;;-14.59;81.53
63819;BME280;49970;54.976;73.248;2022-12-29T09:10:05;102219.56;;;-14.51;80.38
63819;BME280;49970;54.976;73.248;2022-12-29T09:12:42;102214.72;;;-14.46;80.34
63819;BME280;49970;54.976;73.248;2022-12-29T09:15:13;102220.59;;;-14.47;80.81
63819;BME280;49970;54.976;73.248;2022-12-29T09:17:51;102221.66;;;-14.44;80.13
63819;BME280;49970;54.976;73.248;2022-12-29T09:20:21;102230.19;;;-14.43;81.74
63819;BME280;49970;54.976;73.248;2022-12-29T09:22:49;102222.34;;;-14.46;81.43
63819;BME280;49970;54.976;73.248;2022-12-29T09:25:19;102223.97;;;-14.48;80.73
63819;BME280;49970;54.976;73.248;2022-12-29T09:27:56;102222.28;;;-14.48;81.38
63819;BME280;49970;54.976;73.248;2022-12-29T09:30:36;102232.53;;;-14.46;80.09
63819;BME280;49970;54.976;73.248;2022-12-29T09:33:07;102229.97;;;-14.46;79.99
63819;BME280;49970;54.976;73.248;2022-12-29T09:35:41;102214.19;;;-14.55;80.97
63819;BME280;49970;54.976;73.248;2022-12-29T09:38:09;102227.19;;;-14.51;81.31
63819;BME280;49970;54.976;73.248;2022-12-29T09:40:39;102228.59;;;-14.56;79.87
63819;BME280;49970;54.976;73.248;2022-12-29T09:48:41;102231.75;;;-14.73;80.81
63819;BME280;49970;54.976;73.248;2022-12-29T09:51:15;102243.88;;;-14.69;80.43
63819;BME280;49970;54.976;73.248;2022-12-29T09:53:52;102242.91;;;-14.71;81.08
63819;BME280;49970;54.976;73.248;2022-12-29T09:56:23;102240.19;;;-14.74;81.03
63819;BME280;49970;54.976;73.248;2022-12-29T09:59:11;102251.81;;;-14.78;80.42
63819;BME280;49970;54.976;73.248;2022-12-29T10:02:22;102244.72;;;-14.84;80.24
63819;BME280;49970;54.976;73.248;2022-12-29T10:04:51;102236.69;;;-14.90;81.06
63819;BME280;49970;54.976;73.248;2022-12-29T10:19:07;102233.16;;;-15.05;81.51
63819;BME280;49970;54.976;73.248;2022-12-29T10:24:04;102233.75;;;-15.09;80.20
63819;BME280;49970;54.976;73.248;2022-12-29T10:26:40;102236.78;;;-15.15;80.89
63819;BME280;49970;54.976;73.248;2022-12-29T10:29:29;102230.16;;;-15.13;81.38
63819;BME280;49970;54.976;73.248;2022-12-29T10:32:09;102225.28;;;-15.23;80.37
63819;BME280;49970;54.976;73.248;2022-12-29T10:34:55;102227.44;;;-15.29;81.12
63819;BME280;49970;54.976;73.248;2022-12-29T10:37:34;102233.88;;;-15.21;81.16
63819;BME280;49970;54.976;73.248;2022-12-29T10:43:29;102234.75;;;-15.20;81.22
63819;BME280;49970;54.976;73.248;2022-12-29T10:46:06;102236.44;;;-15.21;80.98
63819;BME280;49970;54.976;73.248;2022-12-29T10:48:39;102229.28;;;-15.26;80.21
63819;BME280;49970;54.976;73.248;2022-12-29T10:51:46;102236.44;;;-15.21;81.09
63819;BME280;49970;54.976;73.248;2022-12-29T10:55:22;102236.22;;;-15.24;80.61
63819;BME280;49970;54.976;73.248;2022-12-29T10:57:51;102233.75;;;-15.22;80.90
63819;BME280;49970;54.976;73.248;2022-12-29T11:00:22;102237.97;;;-15.23;79.91
63819;BME280;49970;54.976;73.248;2022-12-29T11:08:30;102246.19;;;-15.27;80.00
63819;BME280;49970;54.976;73.248;2022-12-29T11:11:06;102249.50;;;-15.28;80.55
63819;BME280;49970;54.976;73.248;2022-12-29T11:13:56;102247.47;;;-15.34;80.24
63819;BME280;49970;54.976;73.248;2022-12-29T11:16:31;102238.34;;;-15.43;79.64
63819;BME280;49970;54.976;73.248;2022-12-29T11:19:04;102240.00;;;-15.44;79.69
63819;BME280;49970;54.976;73.248;2022-12-29T11:21:38;102247.84;;;-15.41;79.96
63819;BME280;49970;54.976;73.248;2022-12-29T11:24:27;102245.88;;;-15.45;80.36
63819;BME280;49970;54.976;73.248;2022-12-29T11:27:21;102249.09;;;-15.47;79.70
63819;BME280;49970;54.976;73.248;2022-12-29T11:29:50;102233.06;;;-15.60;79.96
63819;BME280;49970;54.976;73.248;2022-12-29T11:32:23;102248.41;;;-15.58;79.75
63819;BME280;49970;54.976;73.248;2022-12-29T11:34:50;102248.03;;;-15.64;79.19
63819;BME280;49970;54.976;73.248;2022-12-29T11:37:29;102241.00;;;-15.68;79.36
63819;BME280;49970;54.976;73.248;2022-12-29T11:40:05;102253.38;;;-15.73;79.59
63819;BME280;49970;54.976;73.248;2022-12-29T11:42:37;102251.44;;;-15.77;80.07
63819;BME280;49970;54.976;73.248;2022-12-29T11:45:14;102250.47;;;-15.79;80.07
63819;BME280;49970;54.976;73.248;2022-12-29T11:47:53;102243.50;;;-15.81;79.83
63819;BME280;49970;54.976;73.248;2022-12-29T11:50:32;102257.94;;;-15.80;79.73
63819;BME280;49970;54.976;73.248;2022-12-29T11:53:17;102251.09;;;-15.95;79.69
63819;BME280;49970;54.976;73.248;2022-12-29T11:55:59;102251.31;;;-15.92;79.63
63819;BME280;49970;54.976;73.248;2022-12-29T11:58:39;102255.50;;;-15.92;79.90
63819;BME280;49970;54.976;73.248;2022-12-29T12:01:16;102258.91;;;-15.92;79.78
63819;BME280;49970;54.976;73.248;2022-12-29T12:03:50;102253.84;;;-15.92;79.62
63819;BME280;49970;54.976;73.248;2022-12-29T12:06:23;102253.94;;;-15.90;79.68
63819;BME280;49970;54.976;73.248;2022-12-29T12:09:01;102256.38;;;-15.92;80.17
63819;BME280;49970;54.976;73.248;2022-12-29T12:11:33;102264.88;;;-15.91;79.67
63819;BME280;49970;54.976;73.248;2022-12-29T12:17:19;102254.88;;;-16.01;79.69
63819;BME280;49970;54.976;73.248;2022-12-29T12:20:04;102265.44;;;-15.95;79.81
63819;BME280;49970;54.976;73.248;2022-12-29T12:22:49;102257.56;;;-16.12;79.44
63819;BME280;49970;54.976;73.248;2022-12-29T12:25:38;102264.00;;;-16.17;79.80
63819;BME280;49970;54.976;73.248;2022-12-29T12:28:26;102261.34;;;-16.18;79.72
63819;BME280;49970;54.976;73.248;2022-12-29T12:30:58;102265.66;;;-16.17;79.91
63819;BME280;49970;54.976;73.248;2022-12-29T12:33:35;102269.25;;;-16.14;80.05
63819;BME280;49970;54.976;73.248;2022-12-29T12:36:29;102254.41;;;-16.21;79.95
63819;BME280;49970;54.976;73.248;2022-12-29T12:39:19;102260.91;;;-16.13;80.04
63819;BME280;49970;54.976;73.248;2022-12-29T12:51:10;102253.16;;;-16.14;79.87
63819;BME280;49970;54.976;73.248;2022-12-29T12:53:55;102264.00;;;-16.17;80.04
63819;BME280;49970;54.976;73.248;2022-12-29T13:05:47;102264.81;;;-16.29;79.52
63819;BME280;49970;54.976;73.248;2022-12-29T13:12:03;102260.63;;;-16.29;79.55
63819;BME280;49970;54.976;73.248;2022-12-29T13:14:24;102253.47;;;-16.35;79.47
63819;BME280;49970;54.976;73.248;2022-12-29T13:17:05;102263.50;;;-16.36;79.09
63819;BME280;49970;54.976;73.248;2022-12-29T13:22:28;102273.66;;;-16.36;79.56
63819;BME280;49970;54.976;73.248;2022-12-29T13:30:44;102277.94;;;-16.35;80.20
63819;BME280;49970;54.976;73.248;2022-12-29T13:36:36;102271.66;;;-16.28;80.14
63819;BME280;49970;54.976;73.248;2022-12-29T13:39:19;102275.84;;;-16.29;80.41
63819;BME280;49970;54.976;73.248;2022-12-29T13:41:54;102277.59;;;-16.28;80.14
63819;BME280;49970;54.976;73.248;2022-12-29T13:44:27;102275.06;;;-16.28;79.81
63819;BME280;49970;54.976;73.248;2022-12-29T13:46:56;102273.50;;;-16.26;79.91
63819;BME280;49970;54.976;73.248;2022-12-29T13:49:35;102269.34;;;-16.25;80.35
63819;BME280;49970;54.976;73.248;2022-12-29T13:52:28;102243.88;;;-16.39;80.50
63819;BME280;49970;54.976;73.248;2022-12-29T13:58:07;102284.09;;;-16.20;80.75
63819;BME280;49970;54.976;73.248;2022-12-29T14:02:15;102278.38;;;-16.29;80.58
63819;BME280;49970;54.976;73.248;2022-12-29T14:05:39;102281.78;;;-16.28;80.47
63819;BME280;49970;54.976;73.248;2022-12-29T14:07:47;102279.94;;;-16.43;81.07
63819;BME280;49970;54.976;73.248;2022-12-29T14:10:33;102283.81;;;-16.48;80.55
63819;BME280;49970;54.976;73.248;2022-12-29T14:15:41;102295.22;;;-16.54;80.93
63819;BME280;49970;54.976;73.248;2022-12-29T14:18:23;102300.47;;;-16.51;81.48
63819;BME280;49970;54.976;73.248;2022-12-29T14:23:40;102296.41;;;-16.49;81.49
63819;BME280;49970;54.976;73.248;2022-12-29T14:28:41;102294.75;;;-16.49;81.42
63819;BME280;49970;54.976;73.248;2022-12-29T14:33:41;102276.75;;;-16.40;81.70
63819;BME280;49970;54.976;73.248;2022-12-29T14:36:40;102274.19;;;-16.28;81.80
63819;BME280;49970;54.976;73.248;2022-12-29T14:44:52;102271.03;;;-16.13;82.12
63819;BME280;49970;54.976;73.248;2022-12-29T14:47:31;102266.84;;;-16.12;81.74
63819;BME280;49970;54.976;73.248;2022-12-29T14:50:52;102266.53;;;-16.17;81.56
63819;BME280;49970;54.976;73.248;2022-12-29T14:55:44;102269.81;;;-16.18;81.48
63819;BME280;49970;54.976;73.248;2022-12-29T14:58:37;102265.88;;;-16.26;81.37
63819;BME280;49970;54.976;73.248;2022-12-29T15:01:36;102272.63;;;-16.26;81.05
63819;BME280;49970;54.976;73.248;2022-12-29T15:04:22;102267.53;;;-16.26;81.26
63819;BME280;49970;54.976;73.248;2022-12-29T15:06:50;102274.84;;;-16.31;81.71
63819;BME280;49970;54.976;73.248;2022-12-29T15:09:25;102273.00;;;-16.34;81.37
63819;BME280;49970;54.976;73.248;2022-12-29T15:12:20;102280.94;;;-16.41;81.25
63819;BME280;49970;54.976;73.248;2022-12-29T15:14:58;102272.91;;;-16.47;81.43
63819;BME280;49970;54.976;73.248;2022-12-29T15:17:34;102287.47;;;-16.44;81.40